Time;durP1;ratioP1;P1;durP2;ratioP2;P2;SDS_P1;SDS_P2;PMS_P1;PMS_P2;Temp;Humidity;BMP_temperature;BMP_pressure;BME280_temperature;BME280_humidity;BME280_pressure;Samples;Min_cycle;Max_cycle;Signal;HPM_P1;HPM_P2
2024/04/22 00:01:44;;;;;;;;;;;17.50;54.20;;;;;;5488496;26;19928;-75
2024/04/22 00:04:10;;;;;;;;;;;17.50;54.40;;;;;;5488458;26;19938;-72
2024/04/22 00:06:36;;;;;;;;;;;17.40;53.90;;;;;;5488101;26;19935;-72
2024/04/22 00:09:02;;;;;;;;;;;17.50;54.30;;;;;;5488285;26;19928;-72
2024/04/22 00:11:28;;;;;;;;;;;17.50;54.10;;;;;;5487957;26;20013;-72
2024/04/22 00:13:54;;;;;;;;;;;17.40;54.00;;;;;;5488215;26;19938;-71
2024/04/22 00:16:20;;;;;;;;;;;17.40;54.00;;;;;;5487956;26;19936;-72
2024/04/22 00:18:45;;;;;;;;;;;17.50;54.10;;;;;;5488523;26;20054;-72
2024/04/22 00:21:11;;;;;;;;;;;17.40;54.80;;;;;;5487829;26;19964;-72
2024/04/22 00:23:37;;;;;;;;;;;17.50;54.30;;;;;;5487639;26;19982;-72
2024/04/22 00:26:03;;;;;;;;;;;17.50;54.40;;;;;;5488195;26;19936;-72
2024/04/22 00:28:30;;;;;;;;;;;17.50;54.20;;;;;;5487923;26;19932;-72
2024/04/22 00:30:55;;;;;;;;;;;17.40;54.10;;;;;;5488055;26;19960;-72
2024/04/22 00:33:21;;;;;;;;;;;17.40;54.20;;;;;;5488038;26;19935;-72
2024/04/22 00:35:54;;;;;;;;;;;17.40;54.10;;;;;;5487758;26;20492;-72
2024/04/22 00:38:19;;;;;;;;;;;17.40;50.60;;;;;;5487743;26;19928;-72
2024/04/22 00:40:45;;;;;;;;;;;17.40;54.30;;;;;;5487536;26;19935;-72
2024/04/22 00:43:10;;;;;;;;;;;17.40;54.40;;;;;;5487486;26;19931;-72
2024/04/22 00:45:36;;;;;;;;;;;17.40;54.10;;;;;;5487799;26;19928;-72
2024/04/22 00:48:01;;;;;;;;;;;17.40;54.50;;;;;;5488044;26;19964;-72
2024/04/22 00:50:28;;;;;;;;;;;17.70;54.50;;;;;;5487704;26;19934;-72
2024/04/22 00:52:53;;;;;;;;;;;17.30;54.70;;;;;;5487065;26;19932;-72
2024/04/22 00:55:19;;;;;;;;;;;17.40;54.00;;;;;;5487346;26;19960;-72
2024/04/22 00:57:45;;;;;;;;;;;17.40;54.20;;;;;;5487449;26;19927;-72
2024/04/22 01:00:12;;;;;;;;;;;17.40;54.40;;;;;;5487254;26;19976;-71
2024/04/22 01:02:37;;;;;;;;;;;17.70;53.60;;;;;;5487372;26;19928;-72
2024/04/22 01:05:03;;;;;;;;;;;17.40;54.50;;;;;;5487458;26;19934;-72
2024/04/22 01:07:29;;;;;;;;;;;17.50;53.80;;;;;;5487158;26;19927;-72
2024/04/22 01:09:55;;;;;;;;;;;17.40;54.60;;;;;;5487091;26;20273;-72
2024/04/22 01:12:20;;;;;;;;;;;17.40;54.30;;;;;;5487019;26;19928;-72
2024/04/22 01:14:46;;;;;;;;;;;17.40;54.40;;;;;;5487244;26;20377;-72
2024/04/22 01:17:11;;;;;;;;;;;17.40;54.40;;;;;;5487807;26;20384;-72
2024/04/22 01:19:37;;;;;;;;;;;17.40;54.60;;;;;;5487280;26;19935;-72
2024/04/22 01:22:04;;;;;;;;;;;17.30;54.50;;;;;;5487240;26;20269;-72
2024/04/22 01:24:29;;;;;;;;;;;17.40;53.90;;;;;;5486862;26;20360;-72
2024/04/22 01:26:56;;;;;;;;;;;17.30;54.50;;;;;;5486796;26;19928;-72
2024/04/22 01:29:21;;;;;;;;;;;17.50;54.80;;;;;;5487084;26;19928;-72
2024/04/22 01:31:47;;;;;;;;;;;17.30;54.40;;;;;;5486707;26;19954;-71
2024/04/22 01:34:12;;;;;;;;;;;17.30;54.80;;;;;;5486694;26;19936;-72
2024/04/22 01:36:41;;;;;;;;;;;17.40;54.40;;;;;;5486873;26;20354;-72
2024/04/22 01:39:08;;;;;;;;;;;17.30;54.20;;;;;;5486708;26;19927;-72
2024/04/22 01:41:33;;;;;;;;;;;17.30;54.40;;;;;;5486605;26;19935;-72
2024/04/22 01:43:59;;;;;;;;;;;17.30;54.30;;;;;;5487220;26;19932;-72
2024/04/22 01:46:24;;;;;;;;;;;17.30;54.50;;;;;;5486592;26;19944;-71
2024/04/22 01:48:50;;;;;;;;;;;17.30;54.50;;;;;;5486632;26;19928;-71
2024/04/22 01:51:15;;;;;;;;;;;17.20;54.50;;;;;;5486569;26;19928;-71
2024/04/22 01:53:41;;;;;;;;;;;17.30;54.20;;;;;;5486789;26;19927;-72
2024/04/22 01:56:06;;;;;;;;;;;17.30;54.50;;;;;;5486772;26;19960;-72
2024/04/22 01:58:32;;;;;;;;;;;17.30;54.50;;;;;;5486550;26;19961;-75
2024/04/22 02:01:03;;;;;;;;;;;17.20;54.50;;;;;;5484895;26;19952;-75
2024/04/22 02:03:28;;;;;;;;;;;17.20;54.60;;;;;;5486741;26;19932;-75
2024/04/22 02:05:54;;;;;;;;;;;17.10;54.20;;;;;;5489410;26;19932;-75
2024/04/22 02:08:19;;;;;;;;;;;17.20;54.60;;;;;;5489992;26;19936;-75
2024/04/22 02:10:45;;;;;;;;;;;17.30;54.40;;;;;;5490028;26;20020;-75
2024/04/22 02:13:10;;;;;;;;;;;17.20;54.80;;;;;;5490513;26;20248;-75
2024/04/22 02:15:36;;;;;;;;;;;17.20;54.80;;;;;;5489791;26;19936;-75
2024/04/22 02:18:01;;;;;;;;;;;17.30;55.00;;;;;;5490046;26;19960;-75
2024/04/22 02:20:26;;;;;;;;;;;17.20;54.40;;;;;;5490170;26;19929;-75
2024/04/22 02:22:52;;;;;;;;;;;17.20;54.90;;;;;;5488030;26;19958;-75
2024/04/22 02:25:17;;;;;;;;;;;17.20;54.60;;;;;;5490233;26;19928;-75
2024/04/22 02:27:43;;;;;;;;;;;17.10;54.70;;;;;;5489894;26;19929;-75
2024/04/22 02:30:09;;;;;;;;;;;17.30;54.90;;;;;;5489649;26;19927;-75
2024/04/22 02:32:34;;;;;;;;;;;17.20;53.50;;;;;;5489970;26;19927;-75
2024/04/22 02:35:00;;;;;;;;;;;17.20;54.60;;;;;;5489772;26;19928;-75
2024/04/22 02:37:25;;;;;;;;;;;17.20;54.50;;;;;;5489989;26;19928;-75
2024/04/22 02:39:51;;;;;;;;;;;17.60;54.60;;;;;;5489701;26;20358;-75
2024/04/22 02:42:16;;;;;;;;;;;17.20;54.50;;;;;;5490178;26;19936;-75
2024/04/22 02:44:41;;;;;;;;;;;17.20;54.80;;;;;;5489837;26;19935;-75
2024/04/22 02:47:07;;;;;;;;;;;17.20;54.70;;;;;;5487681;26;20322;-75
2024/04/22 02:49:32;;;;;;;;;;;17.20;54.90;;;;;;5489470;26;19936;-74
2024/04/22 02:51:58;;;;;;;;;;;17.10;54.40;;;;;;5489805;26;19934;-75
2024/04/22 02:54:28;;;;;;;;;;;17.20;54.20;;;;;;5489896;26;19943;-72
2024/04/22 02:56:56;;;;;;;;;;;17.10;54.60;;;;;;5489373;26;20400;-71
2024/04/22 02:59:21;;;;;;;;;;;17.20;51.20;;;;;;5489533;26;19932;-72
2024/04/22 03:01:50;;;;;;;;;;;17.10;54.70;;;;;;5489253;26;19936;-72
2024/04/22 03:04:16;;;;;;;;;;;17.20;50.90;;;;;;5489384;26;19937;-71
2024/04/22 03:06:41;;;;;;;;;;;17.10;55.40;;;;;;5489285;26;20054;-72
2024/04/22 03:09:07;;;;;;;;;;;17.20;54.60;;;;;;5489955;26;19928;-71
2024/04/22 03:11:32;;;;;;;;;;;17.10;54.70;;;;;;5489775;26;19928;-72
2024/04/22 03:13:58;;;;;;;;;;;17.10;54.70;;;;;;5489003;26;20418;-72
2024/04/22 03:16:23;;;;;;;;;;;17.10;54.80;;;;;;5488672;26;19987;-72
2024/04/22 03:18:49;;;;;;;;;;;17.10;54.80;;;;;;5489167;26;19928;-72
2024/04/22 03:21:14;;;;;;;;;;;17.10;54.80;;;;;;5489351;26;20238;-72
2024/04/22 03:23:40;;;;;;;;;;;17.00;55.10;;;;;;5489316;26;19968;-72
2024/04/22 03:26:05;;;;;;;;;;;15.90;54.10;;;;;;5489141;26;19983;-72
2024/04/22 03:28:31;;;;;;;;;;;17.10;55.00;;;;;;5489130;26;19954;-72
2024/04/22 03:30:56;;;;;;;;;;;17.10;54.60;;;;;;5489111;26;19936;-72
2024/04/22 03:33:22;;;;;;;;;;;17.00;54.50;;;;;;5489250;26;19940;-71
2024/04/22 03:35:47;;;;;;;;;;;17.10;54.80;;;;;;5489057;26;19928;-72
2024/04/22 03:38:14;;;;;;;;;;;17.10;53.90;;;;;;5489527;26;19928;-75
2024/04/22 03:40:39;;;;;;;;;;;17.10;54.80;;;;;;5488865;26;20051;-75
2024/04/22 03:43:04;;;;;;;;;;;17.00;54.70;;;;;;5488916;26;19928;-75
2024/04/22 03:45:30;;;;;;;;;;;17.00;54.70;;;;;;5488576;26;20000;-75
2024/04/22 03:50:40;;;;;;;;;;;17.00;51.60;;;;;;5489056;26;19997;-75
2024/04/22 03:53:07;;;;;;;;;;;16.80;54.50;;;;;;5489009;26;19993;-75
2024/04/22 03:55:32;;;;;;;;;;;17.00;54.30;;;;;;5488716;26;19935;-75
2024/04/22 03:57:58;;;;;;;;;;;16.70;54.70;;;;;;5488788;26;19927;-75
2024/04/22 04:00:23;;;;;;;;;;;17.00;54.50;;;;;;5488473;26;19934;-75
2024/04/22 04:08:55;;;;;;;;;;;16.90;50.70;;;;;;5489481;26;20004;-74
2024/04/22 04:11:26;;;;;;;;;;;17.10;54.70;;;;;;5489901;26;19935;-74
2024/04/22 04:13:53;;;;;;;;;;;16.90;54.40;;;;;;5488523;26;21370;-74
2024/04/22 04:16:19;;;;;;;;;;;17.00;54.70;;;;;;5489513;26;19936;-74
2024/04/22 04:18:46;;;;;;;;;;;17.20;54.60;;;;;;5489305;26;20266;-74
2024/04/22 04:21:11;;;;;;;;;;;17.00;54.50;;;;;;5489320;26;20036;-74
2024/04/22 04:23:36;;;;;;;;;;;16.90;54.60;;;;;;5489093;26;19997;-74
2024/04/22 04:26:02;;;;;;;;;;;16.90;55.00;;;;;;5489176;26;19928;-74
2024/04/22 04:28:28;;;;;;;;;;;17.10;54.30;;;;;;5487810;26;20304;-74
2024/04/22 04:30:54;;;;;;;;;;;16.80;55.10;;;;;;5488867;26;19928;-74
2024/04/22 04:33:19;;;;;;;;;;;16.90;54.80;;;;;;5489098;26;19935;-74
2024/04/22 04:35:45;;;;;;;;;;;16.90;54.60;;;;;;5489160;26;20305;-74
2024/04/22 04:38:10;;;;;;;;;;;16.90;54.90;;;;;;5488762;26;19959;-74
2024/04/22 04:40:36;;;;;;;;;;;16.90;54.60;;;;;;5488608;26;19935;-75
2024/04/22 04:43:01;;;;;;;;;;;16.90;54.80;;;;;;5488423;26;19932;-75
2024/04/22 04:45:27;;;;;;;;;;;16.90;54.90;;;;;;5488660;26;19927;-75
2024/04/22 04:47:53;;;;;;;;;;;16.90;54.80;;;;;;5488452;26;19940;-75
2024/04/22 04:50:18;;;;;;;;;;;16.70;54.60;;;;;;5488607;26;19940;-74
2024/04/22 04:52:44;;;;;;;;;;;16.90;54.40;;;;;;5488762;26;19928;-75
2024/04/22 04:55:10;;;;;;;;;;;16.90;54.80;;;;;;5488341;26;19928;-74
2024/04/22 04:57:35;;;;;;;;;;;16.90;54.50;;;;;;5488325;26;19928;-75
2024/04/22 05:00:01;;;;;;;;;;;16.90;55.00;;;;;;5488312;26;19939;-74
2024/04/22 05:02:26;;;;;;;;;;;16.90;54.80;;;;;;5488259;26;19935;-75
2024/04/22 05:04:52;;;;;;;;;;;17.00;55.10;;;;;;5488820;26;19935;-75
2024/04/22 05:07:17;;;;;;;;;;;16.90;54.80;;;;;;5488423;26;19996;-75
2024/04/22 05:09:42;;;;;;;;;;;16.90;55.20;;;;;;5487839;26;19935;-76
2024/04/22 05:12:08;;;;;;;;;;;16.90;54.90;;;;;;5495584;26;19999;-75
2024/04/22 05:14:33;;;;;;;;;;;17.00;54.20;;;;;;5489138;26;19928;-76
2024/04/22 05:16:59;;;;;;;;;;;16.90;55.00;;;;;;5488252;26;20227;-74
2024/04/22 05:19:24;;;;;;;;;;;16.90;55.00;;;;;;5488110;26;19956;-75
2024/04/22 05:21:50;;;;;;;;;;;16.90;54.90;;;;;;5486982;26;20402;-75
2024/04/22 05:24:18;;;;;;;;;;;16.90;55.00;;;;;;5487704;26;20004;-74
2024/04/22 05:26:44;;;;;;;;;;;16.90;55.00;;;;;;5487995;26;19954;-74
2024/04/22 05:29:09;;;;;;;;;;;17.00;55.00;;;;;;5487735;26;19932;-78
2024/04/22 05:31:35;;;;;;;;;;;17.00;55.80;;;;;;5487566;26;20035;-75
2024/04/22 05:36:44;;;;;;;;;;;16.80;52.10;;;;;;5488181;26;19980;-74
2024/04/22 05:39:10;;;;;;;;;;;16.80;54.60;;;;;;5489162;26;20393;-74
2024/04/22 05:41:35;;;;;;;;;;;16.90;55.00;;;;;;5491374;26;19939;-74
2024/04/22 05:44:01;;;;;;;;;;;16.80;55.00;;;;;;5491215;26;19955;-74
2024/04/22 05:46:27;;;;;;;;;;;16.80;55.20;;;;;;5491022;26;19934;-74
2024/04/22 05:48:52;;;;;;;;;;;16.90;55.00;;;;;;5488921;26;19956;-74
2024/04/22 05:51:18;;;;;;;;;;;16.80;55.30;;;;;;5489120;26;19932;-74
2024/04/22 05:53:44;;;;;;;;;;;16.80;54.70;;;;;;5489064;26;19928;-74
2024/04/22 05:56:10;;;;;;;;;;;16.80;54.60;;;;;;5490810;26;19940;-74
2024/04/22 05:58:35;;;;;;;;;;;16.80;54.40;;;;;;5489186;26;19928;-74
2024/04/22 06:01:01;;;;;;;;;;;16.80;54.50;;;;;;5489384;26;19935;-74
2024/04/22 06:03:27;;;;;;;;;;;16.90;54.60;;;;;;5488969;26;19934;-74
2024/04/22 06:05:52;;;;;;;;;;;16.80;54.10;;;;;;5489409;26;19935;-74
2024/04/22 06:08:18;;;;;;;;;;;16.80;54.40;;;;;;5488669;26;19935;-74
2024/04/22 06:10:43;;;;;;;;;;;16.80;54.60;;;;;;5488880;26;19935;-74
2024/04/22 06:13:09;;;;;;;;;;;16.70;54.60;;;;;;5490889;26;19997;-74
2024/04/22 06:15:35;;;;;;;;;;;16.80;54.50;;;;;;5490809;26;19928;-74
2024/04/22 06:18:00;;;;;;;;;;;17.10;54.80;;;;;;5491107;26;19935;-73
2024/04/22 06:20:26;;;;;;;;;;;16.70;54.50;;;;;;5488874;26;19971;-75
2024/04/22 06:22:52;;;;;;;;;;;16.80;54.30;;;;;;5495887;26;19935;-74
2024/04/22 06:25:18;;;;;;;;;;;16.80;53.70;;;;;;5490301;26;19939;-74
2024/04/22 06:27:44;;;;;;;;;;;16.80;54.60;;;;;;5488694;26;20381;-75
2024/04/22 06:30:10;;;;;;;;;;;16.90;54.90;;;;;;5488408;26;19935;-76
2024/04/22 06:32:36;;;;;;;;;;;16.80;53.70;;;;;;5488601;26;19996;-76
2024/04/22 06:35:03;;;;;;;;;;;16.80;55.80;;;;;;5490636;26;19940;-76
2024/04/22 06:37:29;;;;;;;;;;;16.80;54.40;;;;;;5488998;26;19936;-73
2024/04/22 06:39:55;;;;;;;;;;;16.80;55.00;;;;;;5490604;26;19927;-73
2024/04/22 06:42:21;;;;;;;;;;;16.90;54.70;;;;;;5488407;26;19928;-73
2024/04/22 06:44:47;;;;;;;;;;;16.80;55.00;;;;;;5488081;26;19928;-75
2024/04/22 06:47:14;;;;;;;;;;;16.80;55.00;;;;;;5490834;26;19935;-78
2024/04/22 06:49:40;;;;;;;;;;;16.80;55.00;;;;;;5488260;26;19935;-77
2024/04/22 06:52:06;;;;;;;;;;;17.10;54.90;;;;;;5487777;26;19928;-75
2024/04/22 06:54:32;;;;;;;;;;;16.80;54.90;;;;;;5488719;26;20001;-75
2024/04/22 06:56:58;;;;;;;;;;;16.80;54.60;;;;;;5488429;26;20377;-75
2024/04/22 06:59:24;;;;;;;;;;;16.80;55.00;;;;;;5488445;26;20291;-74
2024/04/22 07:01:50;;;;;;;;;;;16.90;55.10;;;;;;5488026;26;19981;-76
2024/04/22 07:04:16;;;;;;;;;;;16.80;55.20;;;;;;5489477;26;20296;-75
2024/04/22 07:06:42;;;;;;;;;;;16.70;54.90;;;;;;5490535;26;19944;-76
2024/04/22 07:09:13;;;;;;;;;;;16.90;55.30;;;;;;5490003;26;20363;-74
2024/04/22 07:11:39;;;;;;;;;;;16.90;52.80;;;;;;5490220;26;19927;-72
2024/04/22 07:14:05;;;;;;;;;;;16.90;55.20;;;;;;5490434;26;19985;-74
2024/04/22 07:16:33;;;;;;;;;;;16.90;55.40;;;;;;5488750;26;19928;-74
2024/04/22 07:18:59;;;;;;;;;;;17.00;55.30;;;;;;5489513;26;20079;-74
2024/04/22 07:21:25;;;;;;;;;;;17.00;55.50;;;;;;5488277;26;19996;-74
2024/04/22 07:23:51;;;;;;;;;;;16.90;55.40;;;;;;5490006;26;19928;-74
2024/04/22 07:26:17;;;;;;;;;;;17.10;55.80;;;;;;5488471;26;19935;-74
2024/04/22 07:28:43;;;;;;;;;;;17.00;55.50;;;;;;5489973;26;19928;-74
2024/04/22 07:31:09;;;;;;;;;;;16.90;55.10;;;;;;5488069;26;20241;-74
2024/04/22 07:33:35;;;;;;;;;;;17.00;54.60;;;;;;5489848;26;19935;-75
2024/04/22 07:36:22;;;;;;;;;;;17.00;54.70;;;;;;5489996;26;19935;-74
2024/04/22 07:38:48;;;;;;;;;;;17.00;55.50;;;;;;5470702;26;19978;-74
2024/04/22 07:41:14;;;;;;;;;;;17.20;54.80;;;;;;5488367;26;19997;-75
2024/04/22 07:43:40;;;;;;;;;;;17.00;54.60;;;;;;5490152;26;19928;-74
2024/04/22 07:46:06;;;;;;;;;;;17.00;55.60;;;;;;5490117;26;19969;-74
2024/04/22 07:48:32;;;;;;;;;;;17.00;55.60;;;;;;5488038;26;19928;-74
2024/04/22 07:51:01;;;;;;;;;;;17.20;56.00;;;;;;5488027;26;19934;-75
2024/04/22 07:53:27;;;;;;;;;;;16.90;55.10;;;;;;5487938;26;19939;-75
2024/04/22 07:55:53;;;;;;;;;;;17.00;55.20;;;;;;5489544;26;19940;-74
2024/04/22 07:58:19;;;;;;;;;;;16.70;54.70;;;;;;5490006;26;19939;-75
2024/04/22 08:00:45;;;;;;;;;;;17.00;55.40;;;;;;5489783;26;19996;-75
2024/04/22 08:03:11;;;;;;;;;;;17.00;55.60;;;;;;5487708;26;19928;-73
2024/04/22 08:05:36;;;;;;;;;;;17.00;55.20;;;;;;5489360;26;19927;-74
2024/04/22 08:08:03;;;;;;;;;;;17.60;55.70;;;;;;5489294;26;19928;-74
2024/04/22 08:10:29;;;;;;;;;;;17.10;56.50;;;;;;5489442;26;20051;-74
2024/04/22 08:12:55;;;;;;;;;;;17.10;56.50;;;;;;5490121;26;20051;-74
2024/04/22 08:15:21;;;;;;;;;;;17.10;56.50;;;;;;5489097;26;20347;-74
2024/04/22 08:17:47;;;;;;;;;;;17.30;56.40;;;;;;5488958;26;19928;-74
2024/04/22 08:20:13;;;;;;;;;;;17.10;56.50;;;;;;5489068;26;19936;-75
2024/04/22 08:22:38;;;;;;;;;;;17.10;56.20;;;;;;5488344;26;19934;-73
2024/04/22 08:25:04;;;;;;;;;;;17.10;56.70;;;;;;5489340;26;19934;-74
2024/04/22 08:27:30;;;;;;;;;;;17.20;56.40;;;;;;5488712;26;19928;-75
2024/04/22 08:29:58;;;;;;;;;;;17.20;56.20;;;;;;5493149;26;19928;-73
2024/04/22 08:32:24;;;;;;;;;;;17.30;56.10;;;;;;5488421;26;19991;-74
2024/04/22 08:34:50;;;;;;;;;;;17.20;56.60;;;;;;5488412;26;19928;-75
2024/04/22 08:37:16;;;;;;;;;;;17.20;56.60;;;;;;5488853;26;19928;-74
2024/04/22 08:39:43;;;;;;;;;;;17.20;56.60;;;;;;5489189;26;19975;-74
2024/04/22 08:42:11;;;;;;;;;;;17.00;56.30;;;;;;5488976;26;19975;-78
2024/04/22 08:44:37;;;;;;;;;;;17.50;52.90;;;;;;5488486;26;20282;-78
2024/04/22 08:47:03;;;;;;;;;;;17.50;57.70;;;;;;5488791;26;19935;-77
2024/04/22 08:49:29;;;;;;;;;;;17.40;56.90;;;;;;5488346;26;19928;-78
2024/04/22 08:51:57;;;;;;;;;;;17.40;56.80;;;;;;5488406;26;19939;-77
2024/04/22 08:54:26;;;;;;;;;;;17.50;56.80;;;;;;5488843;26;20247;-76
2024/04/22 08:56:55;;;;;;;;;;;17.70;52.90;;;;;;5488662;26;19928;-80
2024/04/22 08:59:21;;;;;;;;;;;17.50;52.80;;;;;;5488714;26;19997;-78
2024/04/22 09:01:56;;;;;;;;;;;17.60;56.90;;;;;;5486927;26;20086;-77
2024/04/22 09:04:23;;;;;;;;;;;17.70;56.70;;;;;;5489083;26;19928;-76
2024/04/22 09:06:49;;;;;;;;;;;17.60;56.80;;;;;;5488844;26;20214;-74
2024/04/22 09:09:14;;;;;;;;;;;17.80;56.60;;;;;;5489007;26;19977;-73
2024/04/22 09:11:40;;;;;;;;;;;17.80;56.80;;;;;;5488809;26;20263;-73
2024/04/22 09:14:06;;;;;;;;;;;17.70;56.30;;;;;;5492463;26;19935;-73
2024/04/22 09:16:35;;;;;;;;;;;17.90;56.70;;;;;;5496330;26;19995;-73
2024/04/22 09:19:01;;;;;;;;;;;17.80;56.80;;;;;;5495883;26;19935;-73
2024/04/22 09:21:27;;;;;;;;;;;17.90;56.70;;;;;;5494507;26;20362;-73
2024/04/22 09:23:53;;;;;;;;;;;18.00;56.60;;;;;;5495829;26;19927;-73
2024/04/22 09:26:20;;;;;;;;;;;18.00;56.60;;;;;;5495086;26;19935;-74
2024/04/22 09:28:47;;;;;;;;;;;18.40;56.80;;;;;;5496063;26;19936;-73
2024/04/22 09:31:14;;;;;;;;;;;18.10;56.70;;;;;;5496077;26;19969;-73
2024/04/22 09:33:42;;;;;;;;;;;18.10;56.50;;;;;;5496217;26;19928;-73
2024/04/22 09:36:09;;;;;;;;;;;18.10;56.90;;;;;;5496101;26;20284;-73
2024/04/22 09:38:35;;;;;;;;;;;18.20;56.80;;;;;;5495861;26;19934;-74
2024/04/22 09:41:02;;;;;;;;;;;18.10;56.70;;;;;;5496307;26;19928;-75
2024/04/22 09:43:31;;;;;;;;;;;18.20;57.10;;;;;;5495923;26;19928;-73
2024/04/22 09:45:57;;;;;;;;;;;18.10;56.70;;;;;;5495925;26;19928;-74
2024/04/22 09:48:24;;;;;;;;;;;18.10;57.00;;;;;;5495675;26;20370;-73
2024/04/22 09:50:49;;;;;;;;;;;16.80;56.30;;;;;;5494970;26;19975;-72
2024/04/22 09:53:15;;;;;;;;;;;18.10;56.80;;;;;;5495226;26;20230;-72
2024/04/22 09:55:42;;;;;;;;;;;18.30;57.10;;;;;;5495392;26;19959;-72
2024/04/22 09:58:09;;;;;;;;;;;18.20;57.00;;;;;;5494956;26;20344;-72
2024/04/22 10:00:35;;;;;;;;;;;18.40;57.00;;;;;;5495339;26;20043;-72
2024/04/22 10:03:00;;;;;;;;;;;18.20;56.80;;;;;;5494850;26;20043;-72
2024/04/22 10:05:27;;;;;;;;;;;18.30;57.00;;;;;;5495029;26;19936;-72
2024/04/22 10:07:52;;;;;;;;;;;18.30;57.10;;;;;;5495225;26;20054;-72
2024/04/22 10:10:18;;;;;;;;;;;18.20;56.80;;;;;;5494434;26;19996;-73
2024/04/22 10:12:44;;;;;;;;;;;18.50;57.20;;;;;;5494858;26;19928;-73
2024/04/22 10:15:13;;;;;;;;;;;18.40;57.00;;;;;;5494457;26;20374;-73
2024/04/22 10:17:39;;;;;;;;;;;18.60;53.50;;;;;;5493611;26;20269;-73
2024/04/22 10:20:08;;;;;;;;;;;18.70;57.50;;;;;;5494869;26;20374;-73
2024/04/22 10:22:34;;;;;;;;;;;18.30;53.40;;;;;;5494710;26;19934;-73
2024/04/22 10:25:02;;;;;;;;;;;18.40;57.20;;;;;;5492486;26;19928;-73
2024/04/22 10:27:28;;;;;;;;;;;18.40;57.00;;;;;;5490824;26;19928;-73
2024/04/22 10:29:54;;;;;;;;;;;18.40;56.90;;;;;;5489227;26;19954;-72
2024/04/22 10:32:20;;;;;;;;;;;18.50;57.20;;;;;;5490383;26;20265;-73
2024/04/22 10:34:46;;;;;;;;;;;18.60;56.90;;;;;;5490735;26;19935;-73
2024/04/22 10:37:12;;;;;;;;;;;18.40;56.90;;;;;;5490591;26;19936;-73
2024/04/22 10:39:38;;;;;;;;;;;18.60;56.60;;;;;;5490597;26;19928;-73
2024/04/22 10:42:04;;;;;;;;;;;18.60;56.30;;;;;;5490215;26;19935;-73
2024/04/22 10:44:30;;;;;;;;;;;18.70;55.50;;;;;;5490674;26;19992;-73
2024/04/22 10:46:57;;;;;;;;;;;18.80;55.70;;;;;;5490545;26;19939;-73
2024/04/22 10:49:26;;;;;;;;;;;18.80;56.60;;;;;;5490284;26;19936;-72
2024/04/22 10:51:51;;;;;;;;;;;18.70;55.90;;;;;;5490551;26;19928;-72
2024/04/22 10:54:17;;;;;;;;;;;18.70;55.80;;;;;;5488216;26;19960;-72
2024/04/22 10:56:42;;;;;;;;;;;18.80;55.90;;;;;;5490281;26;19995;-74
2024/04/22 10:59:08;;;;;;;;;;;18.90;55.60;;;;;;5490204;26;19928;-73
2024/04/22 11:01:33;;;;;;;;;;;18.90;55.10;;;;;;5490223;26;19936;-72
2024/04/22 11:04:00;;;;;;;;;;;19.00;55.70;;;;;;5489983;26;19935;-73
2024/04/22 11:06:25;;;;;;;;;;;18.90;55.60;;;;;;5490184;26;19928;-72
2024/04/22 11:08:51;;;;;;;;;;;19.00;55.50;;;;;;5490764;26;19928;-73
2024/04/22 11:11:17;;;;;;;;;;;18.90;55.30;;;;;;5490261;26;19928;-73
2024/04/22 11:13:44;;;;;;;;;;;19.00;55.40;;;;;;5490215;26;19928;-74
2024/04/22 11:16:09;;;;;;;;;;;18.90;55.60;;;;;;5490150;26;19928;-74
2024/04/22 11:18:35;;;;;;;;;;;19.00;55.50;;;;;;5490107;26;19960;-73
2024/04/22 11:21:01;;;;;;;;;;;19.10;55.50;;;;;;5489314;26;19935;-75
2024/04/22 11:23:26;;;;;;;;;;;19.10;55.50;;;;;;5489067;26;19928;-77
2024/04/22 11:25:52;;;;;;;;;;;19.40;55.30;;;;;;5489665;26;19928;-76
2024/04/22 11:28:18;;;;;;;;;;;19.30;55.00;;;;;;5489684;26;19927;-76
2024/04/22 11:30:44;;;;;;;;;;;19.50;55.00;;;;;;5489764;26;20358;-77
2024/04/22 11:33:10;;;;;;;;;;;19.70;54.60;;;;;;5489955;26;20381;-77
2024/04/22 11:35:37;;;;;;;;;;;19.80;54.10;;;;;;5489487;26;19939;-78
2024/04/22 11:38:03;;;;;;;;;;;19.90;53.50;;;;;;5489591;26;19935;-77
2024/04/22 11:40:28;;;;;;;;;;;20.20;53.30;;;;;;5489565;26;19927;-76
2024/04/22 11:42:54;;;;;;;;;;;20.10;53.60;;;;;;5489688;26;19928;-76
2024/04/22 11:45:20;;;;;;;;;;;20.10;53.10;;;;;;5489346;26;19928;-75
2024/04/22 11:47:46;;;;;;;;;;;20.10;52.80;;;;;;5489413;26;20266;-76
2024/04/22 11:50:12;;;;;;;;;;;20.20;53.40;;;;;;5489737;26;19938;-76
2024/04/22 11:52:38;;;;;;;;;;;20.20;53.40;;;;;;5489196;26;19928;-76
2024/04/22 11:55:04;;;;;;;;;;;20.30;53.00;;;;;;5489400;26;19935;-75
2024/04/22 11:57:30;;;;;;;;;;;20.40;52.40;;;;;;5489784;26;20234;-75
2024/04/22 11:59:56;;;;;;;;;;;20.80;52.90;;;;;;5489462;26;19935;-75
2024/04/22 12:02:22;;;;;;;;;;;20.60;52.30;;;;;;5489112;26;19940;-76
2024/04/22 12:04:48;;;;;;;;;;;20.50;52.40;;;;;;5488933;26;20262;-75
2024/04/22 12:07:14;;;;;;;;;;;20.50;52.70;;;;;;5489087;26;19939;-76
2024/04/22 12:09:39;;;;;;;;;;;20.50;53.10;;;;;;5489039;26;19935;-75
2024/04/22 12:12:06;;;;;;;;;;;20.40;52.50;;;;;;5489089;26;19927;-75
2024/04/22 12:14:31;;;;;;;;;;;20.60;52.50;;;;;;5489046;26;19947;-75
2024/04/22 12:16:57;;;;;;;;;;;20.30;53.50;;;;;;5489092;26;19963;-75
2024/04/22 12:19:22;;;;;;;;;;;20.20;53.80;;;;;;5488912;26;19997;-76
2024/04/22 12:21:48;;;;;;;;;;;20.20;53.90;;;;;;5489069;26;20008;-75
2024/04/22 12:24:13;;;;;;;;;;;20.10;54.00;;;;;;5489648;26;19940;-75
2024/04/22 12:26:39;;;;;;;;;;;20.10;54.30;;;;;;5488943;26;19928;-74
2024/04/22 12:29:05;;;;;;;;;;;19.90;54.20;;;;;;5488923;26;19935;-75
2024/04/22 12:31:31;;;;;;;;;;;19.80;55.00;;;;;;5488815;26;19928;-74
2024/04/22 12:33:56;;;;;;;;;;;20.10;55.10;;;;;;5488736;26;19935;-75
2024/04/22 12:36:22;;;;;;;;;;;19.80;55.40;;;;;;5487275;26;19936;-75
2024/04/22 12:38:48;;;;;;;;;;;19.80;55.10;;;;;;5488559;26;20417;-75
2024/04/22 12:41:14;;;;;;;;;;;19.80;54.70;;;;;;5488369;26;19928;-75
2024/04/22 12:43:40;;;;;;;;;;;19.60;54.70;;;;;;5488572;26;19956;-75
2024/04/22 12:46:06;;;;;;;;;;;20.00;55.10;;;;;;5488526;26;19936;-75
2024/04/22 12:51:16;;;;;;;;;;;19.90;52.60;;;;;;5488583;26;19934;-75
2024/04/22 12:53:42;;;;;;;;;;;19.80;55.50;;;;;;5488506;26;19928;-75
2024/04/22 12:56:08;;;;;;;;;;;19.70;55.70;;;;;;5488594;26;19928;-74
2024/04/22 12:58:36;;;;;;;;;;;19.60;55.30;;;;;;5488092;26;20414;-74
2024/04/22 13:01:03;;;;;;;;;;;19.70;55.70;;;;;;5488671;26;19935;-74
2024/04/22 13:03:29;;;;;;;;;;;19.70;55.10;;;;;;5487999;26;19935;-73
2024/04/22 13:05:55;;;;;;;;;;;19.70;55.60;;;;;;5488432;26;19928;-74
2024/04/22 13:08:21;;;;;;;;;;;19.60;56.00;;;;;;5488359;26;20297;-74
2024/04/22 13:10:47;;;;;;;;;;;19.60;55.60;;;;;;5488240;26;19956;-74
2024/04/22 13:13:13;;;;;;;;;;;19.60;56.10;;;;;;5488035;26;20341;-74
2024/04/22 13:15:39;;;;;;;;;;;19.60;55.90;;;;;;5488267;26;19928;-74
2024/04/22 13:18:05;;;;;;;;;;;19.80;56.20;;;;;;5487844;26;19963;-74
2024/04/22 13:20:31;;;;;;;;;;;19.50;55.90;;;;;;5487871;26;19934;-72
2024/04/22 13:22:57;;;;;;;;;;;19.50;56.00;;;;;;5487840;26;19929;-75
2024/04/22 13:25:24;;;;;;;;;;;19.50;55.70;;;;;;5487557;26;19935;-75
2024/04/22 13:27:51;;;;;;;;;;;19.50;55.80;;;;;;5487959;26;19952;-74
2024/04/22 13:30:17;;;;;;;;;;;19.50;55.70;;;;;;5488277;26;19935;-74
2024/04/22 13:32:45;;;;;;;;;;;19.50;55.70;;;;;;5488020;26;20262;-75
2024/04/22 13:35:11;;;;;;;;;;;19.70;56.00;;;;;;5487453;26;19928;-74
2024/04/22 13:37:38;;;;;;;;;;;19.50;55.90;;;;;;5487647;26;20238;-74
2024/04/22 13:40:03;;;;;;;;;;;19.50;55.70;;;;;;5487780;26;19928;-74
2024/04/22 13:42:29;;;;;;;;;;;19.50;55.10;;;;;;5485934;26;19934;-74
2024/04/22 13:44:55;;;;;;;;;;;19.60;55.60;;;;;;5487529;26;19935;-74
2024/04/22 13:47:21;;;;;;;;;;;19.50;55.60;;;;;;5487349;26;20014;-75
2024/04/22 13:49:47;;;;;;;;;;;19.50;55.20;;;;;;5487617;26;20363;-75
2024/04/22 13:52:13;;;;;;;;;;;19.40;55.20;;;;;;5487530;26;19939;-75
2024/04/22 13:54:39;;;;;;;;;;;19.40;55.00;;;;;;5487329;26;19950;-74
2024/04/22 13:57:05;;;;;;;;;;;19.50;55.70;;;;;;5487123;26;19928;-75
2024/04/22 13:59:31;;;;;;;;;;;19.60;54.70;;;;;;5487283;26;19956;-75
2024/04/22 14:01:57;;;;;;;;;;;19.50;55.10;;;;;;5489905;26;20368;-75
2024/04/22 14:04:23;;;;;;;;;;;19.50;55.20;;;;;;5491275;26;19928;-75
2024/04/22 14:06:48;;;;;;;;;;;19.80;54.40;;;;;;5491028;26;19928;-75
2024/04/22 14:09:14;;;;;;;;;;;19.80;55.20;;;;;;5491067;26;19952;-75
2024/04/22 14:11:40;;;;;;;;;;;19.80;54.30;;;;;;5490874;26;19928;-76
2024/04/22 14:14:07;;;;;;;;;;;20.20;53.10;;;;;;5490889;26;20266;-76
2024/04/22 14:16:33;;;;;;;;;;;20.20;52.40;;;;;;5491449;26;19935;-75
2024/04/22 14:18:59;;;;;;;;;;;20.20;52.10;;;;;;5491064;26;19928;-75
2024/04/22 14:21:24;;;;;;;;;;;20.40;51.30;;;;;;5490876;26;19928;-75
2024/04/22 14:23:50;;;;;;;;;;;20.10;51.10;;;;;;5490751;26;20319;-75